Time;durP1;ratioP1;P1;durP2;ratioP2;P2;SDS_P1;SDS_P2;PMS_P1;PMS_P2;Temp;Humidity;BMP_temperature;BMP_pressure;BME280_temperature;BME280_humidity;BME280_pressure;Samples;Min_cycle;Max_cycle;Signal;HPM_P1;HPM_P2
2023/11/19 00:01:53;;;;;;;4.40;2.80;;;;;;;;;;5102761;28;20031;-72
2023/11/19 00:04:41;;;;;;;4.88;2.60;;;;;;;;;;5102694;28;20102;-73
2023/11/19 00:07:27;;;;;;;3.78;2.50;;;;;;;;;;5116540;28;20031;-74
2023/11/19 00:10:13;;;;;;;4.30;2.75;;;;;;;;;;5102522;28;20026;-73
2023/11/19 00:12:59;;;;;;;3.05;2.40;;;;;;;;;;5116354;28;20176;-72
2023/11/19 00:15:45;;;;;;;3.03;2.28;;;;;;;;;;5102779;28;20020;-73
2023/11/19 00:18:30;;;;;;;3.83;2.40;;;;;;;;;;5116139;28;20015;-72
2023/11/19 00:21:16;;;;;;;4.13;2.20;;;;;;;;;;5116493;28;20463;-72
2023/11/19 00:24:01;;;;;;;3.30;2.38;;;;;;;;;;5115958;28;20030;-72
2023/11/19 00:26:47;;;;;;;4.22;2.58;;;;;;;;;;5116387;28;20016;-74
2023/11/19 00:29:33;;;;;;;3.65;2.40;;;;;;;;;;5117404;28;20020;-72
2023/11/19 00:32:18;;;;;;;3.60;2.40;;;;;;;;;;5101453;28;20027;-72
2023/11/19 00:35:04;;;;;;;6.97;2.72;;;;;;;;;;5116015;28;20042;-73
2023/11/19 00:37:51;;;;;;;4.10;2.90;;;;;;;;;;5117092;28;20015;-73
2023/11/19 00:40:36;;;;;;;6.30;3.03;;;;;;;;;;5116068;28;20099;-72
2023/11/19 00:43:22;;;;;;;4.38;2.75;;;;;;;;;;5115924;28;20038;-72
2023/11/19 00:46:08;;;;;;;3.92;2.83;;;;;;;;;;5116809;28;20100;-74
2023/11/19 00:48:53;;;;;;;4.55;3.17;;;;;;;;;;5105382;28;20341;-73
2023/11/19 00:51:39;;;;;;;5.68;2.70;;;;;;;;;;5129479;28;20436;-73
2023/11/19 00:54:25;;;;;;;3.97;2.58;;;;;;;;;;5120014;28;20027;-73
2023/11/19 00:57:11;;;;;;;3.20;2.25;;;;;;;;;;5115042;27;20019;-73
2023/11/19 00:59:56;;;;;;;4.03;2.80;;;;;;;;;;5120172;27;20094;-73
2023/11/19 01:02:42;;;;;;;4.88;2.47;;;;;;;;;;5135978;27;20079;-74
2023/11/19 01:05:28;;;;;;;4.15;2.67;;;;;;;;;;5136029;27;20050;-73
2023/11/19 01:08:14;;;;;;;4.85;2.33;;;;;;;;;;5135581;27;20143;-74
2023/11/19 01:11:00;;;;;;;3.90;2.30;;;;;;;;;;5135417;27;20019;-74
2023/11/19 01:13:45;;;;;;;2.88;2.20;;;;;;;;;;5121974;27;20039;-72
2023/11/19 01:16:31;;;;;;;4.50;2.85;;;;;;;;;;5121773;27;20111;-72
2023/11/19 01:19:17;;;;;;;5.03;3.28;;;;;;;;;;5135716;27;20095;-73
2023/11/19 01:22:02;;;;;;;3.67;2.65;;;;;;;;;;5135343;27;20043;-73
2023/11/19 01:24:48;;;;;;;3.90;2.88;;;;;;;;;;5135423;27;20091;-73
2023/11/19 01:27:36;;;;;;;3.58;2.20;;;;;;;;;;5121736;27;20061;-73
2023/11/19 01:30:22;;;;;;;3.50;2.40;;;;;;;;;;5135157;27;20019;-73
2023/11/19 01:33:08;;;;;;;2.90;2.20;;;;;;;;;;5135241;27;20094;-73
2023/11/19 01:35:53;;;;;;;4.28;2.70;;;;;;;;;;5134810;27;20072;-72
2023/11/19 01:38:39;;;;;;;4.13;2.60;;;;;;;;;;5135165;27;20019;-73
2023/11/19 01:41:24;;;;;;;3.28;2.17;;;;;;;;;;5134903;27;20015;-72
2023/11/19 01:44:12;;;;;;;3.05;1.58;;;;;;;;;;5135766;27;20030;-73
2023/11/19 01:46:58;;;;;;;2.10;1.67;;;;;;;;;;5135101;27;20024;-72
2023/11/19 01:49:43;;;;;;;1.70;1.40;;;;;;;;;;5135051;27;20428;-73
2023/11/19 01:52:29;;;;;;;3.22;1.88;;;;;;;;;;5134647;27;20107;-73
2023/11/19 01:55:16;;;;;;;2.80;1.65;;;;;;;;;;5134810;27;20030;-73
2023/11/19 01:58:02;;;;;;;2.50;2.03;;;;;;;;;;5114338;28;20027;-72
2023/11/19 02:00:48;;;;;;;2.45;1.75;;;;;;;;;;5113131;28;20030;-73
2023/11/19 02:03:34;;;;;;;2.70;1.70;;;;;;;;;;5113259;28;20012;-72
2023/11/19 02:06:19;;;;;;;3.15;1.83;;;;;;;;;;5114102;28;20039;-72
2023/11/19 02:09:07;;;;;;;2.42;1.63;;;;;;;;;;5113567;28;20119;-73
2023/11/19 02:11:53;;;;;;;3.42;2.22;;;;;;;;;;5113067;28;20027;-74
2023/11/19 02:14:40;;;;;;;2.88;2.28;;;;;;;;;;5113227;28;20016;-73
2023/11/19 02:17:31;;;;;;;3.03;2.10;;;;;;;;;;5113700;28;20177;-73
2023/11/19 02:20:19;;;;;;;4.72;2.45;;;;;;;;;;5098028;28;20019;-73
2023/11/19 02:23:06;;;;;;;4.05;2.50;;;;;;;;;;5114053;28;20436;-73
2023/11/19 02:26:02;;;;;;;3.03;2.20;;;;;;;;;;5114493;28;20451;-73
2023/11/19 02:28:47;;;;;;;3.53;2.22;;;;;;;;;;5113392;28;20050;-72
2023/11/19 02:31:34;;;;;;;5.13;2.65;;;;;;;;;;5099202;28;20019;-72
2023/11/19 02:34:21;;;;;;;3.35;2.38;;;;;;;;;;5099197;28;20019;-73
2023/11/19 02:37:08;;;;;;;4.13;2.50;;;;;;;;;;5098858;28;20031;-73
2023/11/19 02:39:53;;;;;;;3.63;2.45;;;;;;;;;;5113836;28;20551;-73
2023/11/19 02:42:39;;;;;;;4.53;2.40;;;;;;;;;;5114046;28;20020;-73
2023/11/19 02:45:25;;;;;;;4.35;2.65;;;;;;;;;;5114451;28;20023;-72
2023/11/19 02:48:11;;;;;;;4.28;2.72;;;;;;;;;;5118243;28;20047;-73
2023/11/19 02:50:58;;;;;;;4.20;2.80;;;;;;;;;;5118184;28;20059;-73
2023/11/19 02:53:44;;;;;;;4.45;2.88;;;;;;;;;;5118122;28;20023;-73
2023/11/19 02:56:34;;;;;;;4.05;2.70;;;;;;;;;;5118098;28;20076;-71
2023/11/19 02:59:27;;;;;;;3.88;2.60;;;;;;;;;;5117588;28;20047;-71
2023/11/19 03:02:15;;;;;;;4.47;2.80;;;;;;;;;;5117297;28;20022;-73
2023/11/19 03:05:01;;;;;;;3.97;2.55;;;;;;;;;;5117160;28;20055;-73
2023/11/19 03:07:47;;;;;;;4.25;2.80;;;;;;;;;;5118152;28;20046;-73
2023/11/19 03:10:34;;;;;;;5.13;2.90;;;;;;;;;;5117425;28;20015;-73
2023/11/19 03:13:20;;;;;;;4.00;2.55;;;;;;;;;;5117510;28;20103;-73
2023/11/19 03:16:06;;;;;;;3.80;2.60;;;;;;;;;;5118483;28;20039;-73
2023/11/19 03:18:52;;;;;;;4.22;2.78;;;;;;;;;;5118017;28;20016;-73
2023/11/19 03:21:38;;;;;;;3.42;2.60;;;;;;;;;;5116395;28;20031;-72
2023/11/19 03:24:24;;;;;;;4.63;2.90;;;;;;;;;;5118062;28;20016;-73
2023/11/19 03:27:11;;;;;;;4.03;2.95;;;;;;;;;;5118054;28;20030;-74
2023/11/19 03:29:56;;;;;;;4.15;3.00;;;;;;;;;;5118044;28;20376;-73
2023/11/19 03:32:42;;;;;;;4.00;2.80;;;;;;;;;;5117138;28;20028;-73
2023/11/19 03:35:28;;;;;;;6.30;2.80;;;;;;;;;;5117648;28;20020;-73
2023/11/19 03:38:14;;;;;;;4.32;2.90;;;;;;;;;;5117114;28;20062;-73
2023/11/19 03:41:00;;;;;;;5.35;2.90;;;;;;;;;;5116262;28;20108;-73
2023/11/19 03:43:45;;;;;;;3.08;2.53;;;;;;;;;;5117558;28;20020;-72
2023/11/19 03:46:31;;;;;;;5.55;2.80;;;;;;;;;;5101637;28;20043;-73
2023/11/19 03:49:16;;;;;;;4.22;3.00;;;;;;;;;;5117699;28;20031;-73
2023/11/19 03:52:02;;;;;;;5.15;3.40;;;;;;;;;;5116104;28;20086;-73
2023/11/19 03:54:48;;;;;;;5.30;3.40;;;;;;;;;;5116441;28;20035;-73
2023/11/19 03:57:33;;;;;;;5.20;3.40;;;;;;;;;;5101275;28;20032;-72
2023/11/19 04:00:20;;;;;;;5.22;3.35;;;;;;;;;;5116816;28;20020;-73
2023/11/19 04:03:06;;;;;;;5.53;3.50;;;;;;;;;;5116040;28;20042;-73
2023/11/19 04:05:52;;;;;;;5.40;3.55;;;;;;;;;;5116377;28;20024;-73
2023/11/19 04:08:37;;;;;;;6.18;3.22;;;;;;;;;;5115996;28;20080;-72
2023/11/19 04:11:23;;;;;;;4.70;3.40;;;;;;;;;;5116156;28;20019;-72
2023/11/19 04:14:09;;;;;;;5.20;2.67;;;;;;;;;;5116970;28;20030;-73
2023/11/19 04:16:55;;;;;;;5.10;3.17;;;;;;;;;;5116739;28;20044;-72
2023/11/19 04:19:41;;;;;;;3.70;2.45;;;;;;;;;;5101226;28;20393;-73
2023/11/19 04:22:26;;;;;;;3.38;2.10;;;;;;;;;;5115745;28;20084;-73
2023/11/19 04:25:13;;;;;;;2.28;1.60;;;;;;;;;;5116866;28;20012;-71
2023/11/19 04:27:59;;;;;;;3.25;2.05;;;;;;;;;;5116476;28;20047;-71
2023/11/19 04:30:45;;;;;;;2.47;1.75;;;;;;;;;;5114888;28;20029;-73
2023/11/19 04:33:31;;;;;;;3.10;1.98;;;;;;;;;;5101541;28;20104;-73
2023/11/19 04:36:19;;;;;;;2.50;1.85;;;;;;;;;;5115566;28;20038;-73
2023/11/19 04:39:09;;;;;;;3.15;1.95;;;;;;;;;;5115240;28;20016;-72
2023/11/19 04:41:54;;;;;;;4.03;2.28;;;;;;;;;;5115344;28;20031;-72
2023/11/19 04:44:42;;;;;;;2.38;1.50;;;;;;;;;;5116976;28;20007;-72
2023/11/19 04:47:28;;;;;;;2.45;1.55;;;;;;;;;;5115065;28;20020;-72
2023/11/19 04:50:13;;;;;;;1.88;1.42;;;;;;;;;;5114696;28;20059;-72
2023/11/19 04:52:59;;;;;;;2.53;1.67;;;;;;;;;;5116482;28;20031;-74
2023/11/19 04:55:45;;;;;;;1.92;1.60;;;;;;;;;;5116229;28;20019;-72
2023/11/19 04:58:30;;;;;;;1.80;1.48;;;;;;;;;;5115129;28;20020;-73
2023/11/19 05:01:16;;;;;;;2.35;1.40;;;;;;;;;;5116147;28;20360;-73
2023/11/19 05:04:02;;;;;;;1.90;1.33;;;;;;;;;;5115289;28;20020;-73
2023/11/19 05:06:48;;;;;;;2.25;1.50;;;;;;;;;;5115988;28;20016;-73
2023/11/19 05:09:33;;;;;;;1.92;1.48;;;;;;;;;;5115368;28;20458;-72
2023/11/19 05:12:19;;;;;;;2.13;1.73;;;;;;;;;;5116178;28;20083;-73
2023/11/19 05:15:05;;;;;;;2.70;1.95;;;;;;;;;;5115821;28;20161;-72
2023/11/19 05:17:50;;;;;;;2.45;1.70;;;;;;;;;;5115907;28;20020;-73
2023/11/19 05:20:36;;;;;;;1.83;1.52;;;;;;;;;;5116052;28;20015;-72
2023/11/19 05:23:21;;;;;;;2.67;2.00;;;;;;;;;;5121397;28;20031;-73
2023/11/19 05:26:07;;;;;;;2.17;1.48;;;;;;;;;;5115648;28;20034;-73
2023/11/19 05:28:52;;;;;;;2.30;1.80;;;;;;;;;;5114268;28;20016;-74
2023/11/19 05:31:38;;;;;;;3.60;1.98;;;;;;;;;;5115128;28;20039;-73
2023/11/19 05:34:24;;;;;;;2.95;2.30;;;;;;;;;;5114494;28;20123;-73
2023/11/19 05:37:10;;;;;;;5.57;2.47;;;;;;;;;;5115177;28;20118;-73
2023/11/19 05:39:56;;;;;;;8.82;5.57;;;;;;;;;;5114240;28;20019;-73
2023/11/19 05:42:41;;;;;;;9.00;5.30;;;;;;;;;;5115008;28;20027;-73
2023/11/19 05:45:27;;;;;;;12.00;6.43;;;;;;;;;;5100142;28;20031;-73
2023/11/19 05:48:13;;;;;;;10.73;6.45;;;;;;;;;;5115565;28;20098;-73
2023/11/19 05:50:58;;;;;;;7.90;5.30;;;;;;;;;;5113931;28;20070;-71
2023/11/19 05:53:45;;;;;;;8.63;5.35;;;;;;;;;;5115094;28;20050;-70
2023/11/19 05:56:32;;;;;;;9.25;5.57;;;;;;;;;;5114982;28;20329;-70
2023/11/19 05:59:18;;;;;;;9.85;6.30;;;;;;;;;;5114124;28;20091;-70
2023/11/19 06:02:04;;;;;;;7.88;5.20;;;;;;;;;;5113575;28;20055;-71
2023/11/19 06:04:50;;;;;;;9.18;4.90;;;;;;;;;;5114402;28;20024;-72
2023/11/19 06:07:36;;;;;;;7.10;4.35;;;;;;;;;;5113249;28;20027;-71
2023/11/19 06:10:24;;;;;;;6.85;4.65;;;;;;;;;;5099481;28;20023;-71
2023/11/19 06:13:14;;;;;;;7.22;4.55;;;;;;;;;;5113995;28;20019;-70
2023/11/19 06:16:00;;;;;;;7.30;4.25;;;;;;;;;;5113479;28;20019;-70
2023/11/19 06:18:45;;;;;;;5.22;3.80;;;;;;;;;;5114930;28;20085;-70
2023/11/19 06:21:31;;;;;;;5.88;3.92;;;;;;;;;;5098280;28;20012;-70
2023/11/19 06:24:17;;;;;;;6.07;4.00;;;;;;;;;;5099536;28;20027;-70
2023/11/19 06:27:02;;;;;;;6.13;3.70;;;;;;;;;;5114213;28;20035;-71
2023/11/19 06:29:48;;;;;;;6.10;3.67;;;;;;;;;;5114112;28;20042;-72
2023/11/19 06:32:34;;;;;;;7.78;4.05;;;;;;;;;;5113419;28;20439;-71
2023/11/19 06:35:19;;;;;;;6.30;3.80;;;;;;;;;;5099669;28;20115;-70
2023/11/19 06:38:05;;;;;;;7.30;4.25;;;;;;;;;;5113612;28;20481;-71
2023/11/19 06:40:51;;;;;;;5.30;3.58;;;;;;;;;;5113289;28;20131;-70
2023/11/19 06:43:36;;;;;;;7.78;4.35;;;;;;;;;;5099091;28;20008;-71
2023/11/19 06:46:22;;;;;;;7.15;4.70;;;;;;;;;;5099951;28;20023;-71
2023/11/19 06:49:08;;;;;;;7.93;4.18;;;;;;;;;;5099050;28;20011;-70
2023/11/19 06:51:53;;;;;;;6.05;3.80;;;;;;;;;;5112787;28;20062;-71
2023/11/19 06:54:39;;;;;;;6.90;4.75;;;;;;;;;;5113234;28;20063;-70
2023/11/19 06:57:25;;;;;;;6.97;4.60;;;;;;;;;;5112924;28;20459;-70
2023/11/19 07:00:11;;;;;;;7.07;5.13;;;;;;;;;;5099410;28;20015;-71
2023/11/19 07:02:56;;;;;;;7.72;4.90;;;;;;;;;;5113700;28;20098;-69
2023/11/19 07:05:43;;;;;;;8.07;4.57;;;;;;;;;;5114402;28;20494;-70
2023/11/19 07:08:29;;;;;;;9.38;5.78;;;;;;;;;;5114656;28;20028;-70
2023/11/19 07:11:16;;;;;;;7.40;4.50;;;;;;;;;;5113930;28;20024;-71
2023/11/19 07:14:02;;;;;;;5.60;3.97;;;;;;;;;;5114299;28;20089;-70
2023/11/19 07:16:48;;;;;;;5.35;3.35;;;;;;;;;;5113075;28;20038;-69
2023/11/19 07:19:35;;;;;;;4.80;3.20;;;;;;;;;;5114877;28;20027;-70
2023/11/19 07:22:20;;;;;;;5.93;3.42;;;;;;;;;;5113083;28;20066;-70
2023/11/19 07:25:06;;;;;;;4.85;3.30;;;;;;;;;;5113882;28;20023;-71
2023/11/19 07:27:52;;;;;;;5.07;3.40;;;;;;;;;;5113448;28;20015;-71
2023/11/19 07:30:38;;;;;;;5.13;3.00;;;;;;;;;;5112310;28;20020;-70
2023/11/19 07:33:23;;;;;;;5.32;3.60;;;;;;;;;;5115136;28;20084;-71
2023/11/19 07:36:09;;;;;;;5.93;3.83;;;;;;;;;;5116514;28;20337;-71
2023/11/19 07:38:57;;;;;;;6.10;3.83;;;;;;;;;;5116928;28;20162;-70
2023/11/19 07:41:42;;;;;;;4.75;3.42;;;;;;;;;;5117211;28;20012;-69
2023/11/19 07:44:28;;;;;;;5.28;3.70;;;;;;;;;;5116606;28;20114;-70
2023/11/19 07:47:14;;;;;;;6.63;4.30;;;;;;;;;;5102563;28;20019;-70
2023/11/19 07:49:59;;;;;;;5.10;3.53;;;;;;;;;;5117744;28;20020;-70
2023/11/19 07:52:45;;;;;;;5.45;3.70;;;;;;;;;;5097272;28;20044;-72
2023/11/19 07:55:30;;;;;;;4.53;3.38;;;;;;;;;;5097152;28;20352;-70
2023/11/19 07:58:16;;;;;;;4.47;3.58;;;;;;;;;;5095431;28;20020;-69
2023/11/19 08:01:02;;;;;;;5.22;3.60;;;;;;;;;;5096863;28;20024;-71
2023/11/19 08:03:47;;;;;;;5.15;3.70;;;;;;;;;;5096656;28;20074;-71
2023/11/19 08:06:34;;;;;;;3.97;3.25;;;;;;;;;;5094923;28;20098;-70
2023/11/19 08:09:19;;;;;;;4.47;3.17;;;;;;;;;;5081078;28;20035;-70
2023/11/19 08:12:06;;;;;;;4.15;3.28;;;;;;;;;;5096205;28;20028;-70
2023/11/19 08:14:51;;;;;;;5.53;3.47;;;;;;;;;;5097238;28;20047;-72
2023/11/19 08:17:37;;;;;;;6.78;3.38;;;;;;;;;;5080775;28;20081;-71
2023/11/19 08:20:23;;;;;;;4.97;3.40;;;;;;;;;;5095638;28;20057;-71
2023/11/19 08:23:09;;;;;;;6.28;3.45;;;;;;;;;;5095365;28;20048;-70
2023/11/19 08:25:54;;;;;;;5.03;3.70;;;;;;;;;;5082127;28;20020;-72
2023/11/19 08:28:40;;;;;;;7.47;3.55;;;;;;;;;;5096141;28;20035;-71
2023/11/19 08:31:26;;;;;;;4.45;3.42;;;;;;;;;;5095095;28;20028;-71
2023/11/19 08:34:11;;;;;;;5.20;3.55;;;;;;;;;;5096320;28;20066;-70
2023/11/19 08:36:57;;;;;;;5.35;3.72;;;;;;;;;;5080729;28;20031;-71
2023/11/19 08:39:42;;;;;;;5.05;3.47;;;;;;;;;;5096509;28;20046;-69
2023/11/19 08:42:28;;;;;;;5.93;4.20;;;;;;;;;;5094448;28;20091;-70
2023/11/19 08:45:14;;;;;;;8.68;4.00;;;;;;;;;;5094540;28;20016;-71
2023/11/19 08:47:59;;;;;;;5.50;3.63;;;;;;;;;;5095700;28;20030;-71
2023/11/19 08:50:45;;;;;;;4.88;3.60;;;;;;;;;;5086687;28;20044;-71
2023/11/19 08:53:31;;;;;;;4.47;3.45;;;;;;;;;;5102202;28;20075;-70
2023/11/19 08:56:16;;;;;;;118.18;15.30;;;;;;;;;;5115787;28;20028;-70
2023/11/19 08:59:02;;;;;;;14.30;4.78;;;;;;;;;;5115585;27;20058;-70
2023/11/19 09:01:48;;;;;;;6.25;4.28;;;;;;;;;;5119650;27;20016;-70
2023/11/19 09:04:33;;;;;;;5.93;4.38;;;;;;;;;;5095079;28;20008;-70
2023/11/19 09:07:19;;;;;;;100.80;11.50;;;;;;;;;;5100959;28;20019;-69
2023/11/19 09:10:05;;;;;;;185.23;22.55;;;;;;;;;;5100218;28;20108;-71
2023/11/19 09:12:51;;;;;;;25.00;6.55;;;;;;;;;;5113904;28;20470;-68
2023/11/19 09:15:36;;;;;;;19.08;5.50;;;;;;;;;;5115348;28;20047;-71
2023/11/19 09:18:22;;;;;;;11.45;4.18;;;;;;;;;;5132227;27;20340;-69
2023/11/19 09:21:10;;;;;;;8.02;3.97;;;;;;;;;;5135377;27;20043;-70
2023/11/19 09:23:55;;;;;;;19.15;4.75;;;;;;;;;;5135140;27;20027;-69
2023/11/19 09:26:41;;;;;;;9.95;4.22;;;;;;;;;;5120568;27;20022;-69
2023/11/19 09:29:27;;;;;;;7.95;3.85;;;;;;;;;;5135068;27;20019;-72
2023/11/19 09:32:12;;;;;;;79.93;9.63;;;;;;;;;;5119783;27;20091;-72
2023/11/19 09:34:58;;;;;;;19.23;4.85;;;;;;;;;;5119665;27;20019;-71
2023/11/19 09:37:43;;;;;;;25.95;6.03;;;;;;;;;;5133764;27;20069;-72
2023/11/19 09:40:31;;;;;;;7.22;3.90;;;;;;;;;;5134343;27;20052;-72
2023/11/19 09:43:17;;;;;;;5.63;3.97;;;;;;;;;;5134804;27;20367;-73
2023/11/19 09:46:10;;;;;;;8.18;3.90;;;;;;;;;;5134069;27;20023;-71
2023/11/19 09:48:57;;;;;;;6.15;3.55;;;;;;;;;;5120118;27;20027;-70
2023/11/19 09:51:43;;;;;;;6.28;4.30;;;;;;;;;;5119673;27;20494;-71
2023/11/19 09:54:28;;;;;;;5.68;3.40;;;;;;;;;;5119922;27;20031;-72
2023/11/19 09:57:15;;;;;;;5.32;3.70;;;;;;;;;;5114810;28;20428;-70
2023/11/19 10:00:01;;;;;;;5.63;3.60;;;;;;;;;;5114162;28;20023;-71
2023/11/19 10:02:49;;;;;;;5.03;3.55;;;;;;;;;;5132784;27;20031;-71
2023/11/19 10:05:35;;;;;;;4.40;3.20;;;;;;;;;;5135697;27;20467;-71
2023/11/19 10:08:20;;;;;;;4.50;3.60;;;;;;;;;;5134790;27;20038;-71
2023/11/19 10:11:07;;;;;;;5.70;4.13;;;;;;;;;;5134620;27;20015;-70
2023/11/19 10:13:53;;;;;;;6.20;4.20;;;;;;;;;;5119486;27;20114;-70
2023/11/19 10:16:40;;;;;;;6.20;4.20;;;;;;;;;;5119416;27;20068;-71
2023/11/19 10:19:26;;;;;;;6.78;4.10;;;;;;;;;;5134268;27;20412;-72
2023/11/19 10:22:11;;;;;;;19.65;4.70;;;;;;;;;;5120066;27;20050;-72
2023/11/19 10:24:57;;;;;;;8.23;4.72;;;;;;;;;;5120882;27;20034;-71
2023/11/19 10:27:43;;;;;;;8.73;4.53;;;;;;;;;;5120871;27;20051;-71
2023/11/19 10:30:30;;;;;;;13.30;5.38;;;;;;;;;;5119750;27;20359;-72
2023/11/19 10:33:17;;;;;;;6.88;4.07;;;;;;;;;;5134523;27;20027;-72
2023/11/19 10:36:03;;;;;;;5.88;3.92;;;;;;;;;;5120294;27;20110;-72
2023/11/19 10:38:53;;;;;;;4.70;3.53;;;;;;;;;;5125045;27;20015;-69
2023/11/19 10:41:38;;;;;;;12.07;4.65;;;;;;;;;;5119046;27;20067;-69
2023/11/19 10:44:36;;;;;;;5.63;4.00;;;;;;;;;;5119760;28;20015;-69
2023/11/19 10:47:23;;;;;;;13.75;5.13;;;;;;;;;;5120658;28;20114;-68
2023/11/19 10:50:08;;;;;;;22.45;5.63;;;;;;;;;;5119950;28;20035;-68
2023/11/19 10:53:00;;;;;;;34.50;6.22;;;;;;;;;;5134422;28;20056;-69
2023/11/19 10:55:47;;;;;;;38.50;7.28;;;;;;;;;;5117249;28;20023;-69
2023/11/19 10:58:34;;;;;;;23.23;7.03;;;;;;;;;;5097887;28;20016;-69
2023/11/19 11:01:23;;;;;;;7.43;4.10;;;;;;;;;;5113931;28;20020;-70
2023/11/19 11:04:13;;;;;;;15.38;4.63;;;;;;;;;;5113269;28;20047;-68
2023/11/19 11:07:00;;;;;;;6.55;4.85;;;;;;;;;;5113482;28;20508;-71
2023/11/19 11:09:48;;;;;;;7.38;4.10;;;;;;;;;;5117488;28;20035;-69
2023/11/19 11:12:36;;;;;;;10.00;4.28;;;;;;;;;;5101995;28;20458;-69
2023/11/19 11:15:21;;;;;;;6.18;4.35;;;;;;;;;;5117064;28;20025;-69
2023/11/19 11:18:08;;;;;;;5.00;4.03;;;;;;;;;;5118272;28;20519;-69
2023/11/19 11:20:57;;;;;;;5.78;4.10;;;;;;;;;;5117960;28;20413;-69
2023/11/19 11:24:03;;;;;;;7.38;4.20;;;;;;;;;;5117646;28;20080;-68
2023/11/19 11:26:52;;;;;;;5.47;4.07;;;;;;;;;;5115731;28;20371;-72
2023/11/19 11:29:53;;;;;;;5.03;3.90;;;;;;;;;;5102803;28;20024;-72
2023/11/19 11:32:41;;;;;;;9.68;4.38;;;;;;;;;;5108350;27;20031;-73
2023/11/19 11:35:30;;;;;;;6.70;4.32;;;;;;;;;;5137752;27;20027;-71
2023/11/19 11:38:17;;;;;;;7.03;3.90;;;;;;;;;;5138194;27;20289;-73
2023/11/19 11:41:30;;;;;;;5.10;3.83;;;;;;;;;;5137485;27;20050;-72
2023/11/19 11:44:16;;;;;;;4.53;3.38;;;;;;;;;;5137547;27;20015;-73
2023/11/19 11:47:01;;;;;;;5.43;4.15;;;;;;;;;;5136456;27;20016;-73
2023/11/19 11:49:48;;;;;;;5.22;3.97;;;;;;;;;;5137442;27;20023;-72
2023/11/19 11:52:33;;;;;;;5.70;4.43;;;;;;;;;;5137316;27;20039;-72
2023/11/19 11:55:23;;;;;;;5.85;4.25;;;;;;;;;;5137571;27;20353;-72
2023/11/19 11:58:09;;;;;;;7.28;5.00;;;;;;;;;;5136177;27;20042;-71
2023/11/19 12:00:58;;;;;;;7.68;4.82;;;;;;;;;;5121977;27;20440;-72
2023/11/19 12:03:43;;;;;;;6.97;4.03;;;;;;;;;;5137102;27;20459;-69
2023/11/19 12:06:29;;;;;;;6.05;4.40;;;;;;;;;;5135824;27;20329;-71
2023/11/19 12:09:15;;;;;;;6.38;4.68;;;;;;;;;;5137429;27;20031;-70
2023/11/19 12:12:07;;;;;;;6.97;5.00;;;;;;;;;;5136130;27;20363;-69
2023/11/19 12:14:58;;;;;;;7.55;4.13;;;;;;;;;;5136857;27;20023;-69
2023/11/19 12:17:51;;;;;;;6.47;4.15;;;;;;;;;;5136649;27;20027;-69
2023/11/19 12:20:39;;;;;;;5.95;4.18;;;;;;;;;;5136587;27;20436;-68
2023/11/19 12:23:25;;;;;;;10.65;5.07;;;;;;;;;;5136988;27;20317;-69
2023/11/19 12:26:20;;;;;;;6.72;4.25;;;;;;;;;;5136559;27;20031;-72
2023/11/19 12:29:07;;;;;;;7.25;4.40;;;;;;;;;;5136668;27;20050;-72
2023/11/19 12:31:55;;;;;;;6.00;4.50;;;;;;;;;;5137523;27;20113;-72
2023/11/19 12:34:41;;;;;;;9.52;4.90;;;;;;;;;;5115403;28;20030;-73
2023/11/19 12:37:27;;;;;;;6.88;4.90;;;;;;;;;;5115940;28;20066;-71
2023/11/19 12:40:20;;;;;;;7.00;4.95;;;;;;;;;;5115682;28;20028;-70
2023/11/19 12:43:06;;;;;;;6.28;4.32;;;;;;;;;;5119053;27;20057;-72
2023/11/19 12:45:51;;;;;;;7.90;5.00;;;;;;;;;;5136480;27;20030;-72
2023/11/19 12:48:37;;;;;;;5.88;4.55;;;;;;;;;;5137187;27;20015;-72
2023/11/19 12:51:30;;;;;;;6.68;4.78;;;;;;;;;;5101227;28;20418;-73
2023/11/19 12:54:16;;;;;;;7.13;4.63;;;;;;;;;;5114844;28;20023;-71
2023/11/19 12:57:02;;;;;;;6.88;5.18;;;;;;;;;;5115359;28;20034;-72
2023/11/19 12:59:59;;;;;;;7.57;4.95;;;;;;;;;;5115091;28;20023;-73
2023/11/19 13:02:49;;;;;;;6.90;5.07;;;;;;;;;;5115449;28;20378;-72
2023/11/19 13:05:34;;;;;;;7.38;4.70;;;;;;;;;;5118026;27;20023;-72
2023/11/19 13:08:20;;;;;;;6.43;4.68;;;;;;;;;;5135802;27;20015;-71
2023/11/19 13:11:06;;;;;;;7.50;5.03;;;;;;;;;;5135671;27;20019;-69
2023/11/19 13:13:54;;;;;;;7.28;5.28;;;;;;;;;;5135583;27;20038;-70
2023/11/19 13:16:40;;;;;;;7.45;5.03;;;;;;;;;;5134928;27;20091;-70
2023/11/19 13:19:25;;;;;;;7.47;5.40;;;;;;;;;;5135862;27;20057;-70
2023/11/19 13:22:11;;;;;;;6.55;4.90;;;;;;;;;;5135810;27;20011;-70
2023/11/19 13:24:57;;;;;;;7.28;5.00;;;;;;;;;;5135612;27;20107;-70
2023/11/19 13:27:45;;;;;;;7.47;4.60;;;;;;;;;;5135000;27;20355;-70
2023/11/19 13:30:31;;;;;;;9.75;5.00;;;;;;;;;;5134235;27;20023;-69
2023/11/19 13:33:17;;;;;;;6.18;4.47;;;;;;;;;;5134919;27;20019;-68
2023/11/19 13:36:05;;;;;;;5.85;4.72;;;;;;;;;;5133920;27;20347;-68
2023/11/19 13:38:51;;;;;;;8.05;4.47;;;;;;;;;;5135863;27;20056;-68
2023/11/19 13:41:37;;;;;;;6.07;4.50;;;;;;;;;;5135336;27;20016;-68
2023/11/19 13:44:22;;;;;;;7.10;4.72;;;;;;;;;;5133948;27;20026;-68
2023/11/19 13:47:09;;;;;;;7.63;4.50;;;;;;;;;;5135071;27;20022;-68
2023/11/19 13:49:54;;;;;;;5.60;4.22;;;;;;;;;;5134669;27;20030;-67
2023/11/19 13:52:41;;;;;;;6.38;4.47;;;;;;;;;;5134165;27;20050;-68
2023/11/19 13:55:27;;;;;;;5.95;4.40;;;;;;;;;;5134638;27;20034;-68
2023/11/19 13:58:12;;;;;;;8.57;5.13;;;;;;;;;;5119901;27;20026;-70
2023/11/19 14:00:58;;;;;;;6.45;4.90;;;;;;;;;;5133812;27;20035;-70
2023/11/19 14:03:44;;;;;;;7.57;5.40;;;;;;;;;;5118640;27;20050;-70
2023/11/19 14:06:30;;;;;;;6.78;5.03;;;;;;;;;;5134461;27;20034;-69
2023/11/19 14:09:15;;;;;;;8.23;5.30;;;;;;;;;;5133438;27;20029;-71
2023/11/19 14:12:01;;;;;;;6.80;4.70;;;;;;;;;;5134885;27;20471;-71
2023/11/19 14:14:46;;;;;;;6.75;4.88;;;;;;;;;;5134624;27;20052;-70
2023/11/19 14:17:33;;;;;;;6.55;4.60;;;;;;;;;;5132884;27;20149;-70
2023/11/19 14:20:20;;;;;;;7.70;4.97;;;;;;;;;;5134619;27;20023;-72
2023/11/19 14:23:06;;;;;;;7.47;4.53;;;;;;;;;;5119654;27;20023;-70
2023/11/19 14:25:51;;;;;;;7.15;4.43;;;;;;;;;;5119271;27;20019;-69
2023/11/19 14:28:37;;;;;;;8.00;4.20;;;;;;;;;;5133470;27;20076;-68
2023/11/19 14:31:22;;;;;;;7.18;4.60;;;;;;;;;;5120269;27;20036;-69
2023/11/19 14:34:08;;;;;;;6.50;4.38;;;;;;;;;;5120418;27;20050;-70
2023/11/19 14:36:54;;;;;;;6.47;4.63;;;;;;;;;;5119379;27;20053;-70
2023/11/19 14:39:40;;;;;;;6.30;4.70;;;;;;;;;;5119036;28;20053;-68
2023/11/19 14:42:26;;;;;;;6.15;4.75;;;;;;;;;;5134735;27;20018;-68
2023/11/19 14:45:12;;;;;;;6.28;4.70;;;;;;;;;;5134173;27;20517;-69
2023/11/19 14:47:57;;;;;;;5.85;4.60;;;;;;;;;;5134663;28;20511;-68
2023/11/19 14:50:44;;;;;;;6.10;4.60;;;;;;;;;;5132619;28;20377;-67
2023/11/19 14:53:30;;;;;;;8.32;5.05;;;;;;;;;;5119980;28;20055;-67
2023/11/19 14:56:15;;;;;;;7.85;5.15;;;;;;;;;;5134045;28;20057;-66
2023/11/19 14:59:01;;;;;;;8.10;5.47;;;;;;;;;;5134018;28;20512;-68
2023/11/19 15:01:47;;;;;;;8.30;5.18;;;;;;;;;;5134490;28;20041;-70
2023/11/19 15:04:33;;;;;;;7.20;5.03;;;;;;;;;;5133714;28;20030;-70
2023/11/19 15:07:21;;;;;;;8.57;5.35;;;;;;;;;;5133138;28;20027;-69
2023/11/19 15:10:10;;;;;;;8.68;6.15;;;;;;;;;;5133413;28;20049;-69
2023/11/19 15:12:55;;;;;;;9.15;5.50;;;;;;;;;;5133304;28;20057;-69
2023/11/19 15:15:41;;;;;;;8.27;5.93;;;;;;;;;;5133047;28;20417;-70
2023/11/19 15:18:27;;;;;;;9.55;6.45;;;;;;;;;;5133417;28;20102;-70
2023/11/19 15:21:13;;;;;;;10.98;6.13;;;;;;;;;;5134393;28;20413;-70
2023/11/19 15:23:59;;;;;;;10.43;6.07;;;;;;;;;;5134118;28;20023;-69
2023/11/19 15:26:44;;;;;;;9.98;6.75;;;;;;;;;;5133799;28;20075;-70
2023/11/19 15:29:30;;;;;;;10.07;6.25;;;;;;;;;;5133767;28;20019;-72
2023/11/19 15:32:16;;;;;;;9.95;6.47;;;;;;;;;;5132871;28;20039;-70
2023/11/19 15:35:02;;;;;;;12.00;8.43;;;;;;;;;;5112709;28;20062;-72
2023/11/19 15:37:48;;;;;;;12.68;8.63;;;;;;;;;;5112862;28;20038;-70
2023/11/19 15:40:33;;;;;;;12.95;8.75;;;;;;;;;;5113034;28;20030;-70
2023/11/19 15:43:20;;;;;;;12.98;8.18;;;;;;;;;;5112917;28;20019;-70
2023/11/19 15:46:09;;;;;;;11.30;8.15;;;;;;;;;;5114038;28;20019;-69
2023/11/19 15:48:54;;;;;;;13.43;7.47;;;;;;;;;;5112898;28;20055;-70
2023/11/19 15:51:40;;;;;;;10.98;7.78;;;;;;;;;;5112623;28;20487;-74
2023/11/19 15:54:25;;;;;;;12.55;7.82;;;;;;;;;;5116328;28;20031;-71
2023/11/19 15:57:11;;;;;;;11.05;7.38;;;;;;;;;;5117521;28;20458;-73
2023/11/19 15:59:57;;;;;;;13.32;8.18;;;;;;;;;;5117306;28;20355;-71
2023/11/19 16:02:43;;;;;;;12.45;8.13;;;;;;;;;;5116997;28;20020;-72
2023/11/19 16:05:28;;;;;;;13.32;8.70;;;;;;;;;;5117432;28;20121;-72
2023/11/19 16:08:14;;;;;;;11.55;8.00;;;;;;;;;;5116665;28;20030;-72
2023/11/19 16:11:00;;;;;;;12.75;8.25;;;;;;;;;;5102571;28;20016;-74
2023/11/19 16:13:45;;;;;;;13.52;8.70;;;;;;;;;;5115119;28;20023;-74
2023/11/19 16:16:31;;;;;;;13.48;8.38;;;;;;;;;;5115622;28;20019;-73
2023/11/19 16:19:17;;;;;;;14.07;8.85;;;;;;;;;;5115643;28;20016;-73
2023/11/19 16:22:09;;;;;;;13.52;7.70;;;;;;;;;;5115381;28;20016;-73
2023/11/19 16:24:55;;;;;;;12.95;8.02;;;;;;;;;;5102051;28;20020;-72
2023/11/19 16:27:40;;;;;;;11.23;7.88;;;;;;;;;;5100980;28;20016;-71
2023/11/19 16:30:26;;;;;;;11.40;7.30;;;;;;;;;;5116483;28;20118;-72
2023/11/19 16:33:12;;;;;;;12.80;8.27;;;;;;;;;;5124487;27;20015;-72
2023/11/19 16:35:57;;;;;;;12.60;8.40;;;;;;;;;;5121744;27;20027;-71